createdAt,value
2023-04-22T00:00:23.202Z,6.80
2023-04-22T00:02:57.201Z,6.45
2023-04-22T00:05:31.746Z,6.03
2023-04-22T00:08:05.048Z,5.93
2023-04-22T00:10:37.873Z,6.93
2023-04-22T00:13:11.033Z,6.40
2023-04-22T00:15:44.008Z,7.18
2023-04-22T00:18:16.843Z,6.50
2023-04-22T00:20:51.072Z,6.10
2023-04-22T00:23:23.902Z,5.63
2023-04-22T00:25:56.908Z,5.95
2023-04-22T00:28:29.720Z,6.15
2023-04-22T00:31:03.392Z,6.15
2023-04-22T00:33:36.413Z,6.75
2023-04-22T00:36:11.162Z,5.88
2023-04-22T00:38:49.661Z,6.30
2023-04-22T00:41:23.335Z,6.15
2023-04-22T00:43:56.817Z,6.97
2023-04-22T00:46:30.604Z,7.00
2023-04-22T00:49:03.678Z,6.38
2023-04-22T00:51:37.819Z,6.32
2023-04-22T00:54:10.693Z,6.25
2023-04-22T00:56:43.631Z,6.18
2023-04-22T00:59:16.537Z,5.90
2023-04-22T01:01:49.408Z,5.93
2023-04-22T01:04:23.068Z,5.78
2023-04-22T01:06:57.537Z,6.03
2023-04-22T01:09:30.647Z,6.22
2023-04-22T01:12:03.794Z,6.22
2023-04-22T01:14:36.850Z,7.00
2023-04-22T01:17:12.073Z,6.22
2023-04-22T01:19:46.012Z,5.75
2023-04-22T01:22:20.468Z,6.03
2023-04-22T01:24:55.555Z,6.45
2023-04-22T01:27:28.888Z,6.70
2023-04-22T01:30:01.814Z,6.55
2023-04-22T01:32:34.868Z,6.95
2023-04-22T01:35:09.337Z,6.75
2023-04-22T01:37:42.405Z,6.47
2023-04-22T01:40:19.820Z,6.55
2023-04-22T01:42:53.212Z,6.18
2023-04-22T01:45:26.477Z,6.00
2023-04-22T01:47:59.642Z,6.25
2023-04-22T01:50:32.575Z,6.47
2023-04-22T01:53:07.901Z,5.25
2023-04-22T01:55:47.138Z,6.22
2023-04-22T01:58:20.281Z,6.35
2023-04-22T02:00:53.742Z,6.03
2023-04-22T02:03:26.626Z,6.45
2023-04-22T02:06:01.734Z,6.22
2023-04-22T02:08:35.873Z,6.55
2023-04-22T02:11:10.053Z,6.60
2023-04-22T02:13:42.933Z,5.93
2023-04-22T02:16:15.973Z,6.28
2023-04-22T02:18:48.849Z,6.50
2023-04-22T02:21:22.008Z,6.53
2023-04-22T02:23:54.788Z,5.95
2023-04-22T02:26:29.113Z,6.30
2023-04-22T02:29:02.151Z,6.13
2023-04-22T02:31:35.201Z,6.03
2023-04-22T02:34:08.274Z,6.90
2023-04-22T02:36:41.050Z,6.53
2023-04-22T02:39:14.407Z,7.30
2023-04-22T02:41:48.963Z,6.70
2023-04-22T02:44:21.807Z,7.50
2023-04-22T02:46:54.789Z,7.07
2023-04-22T02:49:27.601Z,6.80
2023-04-22T02:52:00.537Z,6.70
2023-04-22T02:54:33.577Z,6.68
2023-04-22T02:57:07.823Z,6.13
2023-04-22T02:59:40.914Z,6.78
2023-04-22T03:02:15.101Z,6.80
2023-04-22T03:05:11.667Z,7.25
2023-04-22T03:07:47.480Z,7.35
2023-04-22T03:10:22.317Z,6.75
2023-04-22T03:12:57.922Z,6.90
2023-04-22T03:15:31.661Z,7.10
2023-04-22T03:18:04.625Z,6.57
2023-04-22T03:20:37.641Z,6.53
2023-04-22T03:23:10.753Z,7.43
2023-04-22T03:25:44.278Z,7.22
2023-04-22T03:28:19.017Z,6.20
2023-04-22T03:30:52.122Z,7.70
2023-04-22T03:33:25.785Z,6.70
2023-04-22T03:36:03.172Z,6.30
2023-04-22T03:38:36.019Z,6.10
2023-04-22T03:41:09.338Z,6.32
2023-04-22T03:43:50.135Z,6.25
2023-04-22T03:46:23.961Z,7.18
2023-04-22T03:49:05.175Z,6.63
2023-04-22T03:51:40.676Z,6.45
2023-04-22T03:54:18.028Z,6.97
2023-04-22T03:56:55.511Z,7.00
2023-04-22T03:59:30.934Z,7.10
2023-04-22T04:02:04.169Z,8.00
2023-04-22T04:04:37.404Z,6.20
2023-04-22T04:07:11.356Z,6.65
2023-04-22T04:09:44.177Z,6.57
2023-04-22T04:12:17.842Z,6.38
2023-04-22T04:14:52.569Z,6.63
2023-04-22T04:17:28.815Z,6.35
2023-04-22T04:20:02.024Z,5.97
2023-04-22T04:22:36.140Z,6.68
2023-04-22T04:25:11.850Z,6.80
2023-04-22T04:27:50.404Z,6.55
2023-04-22T04:30:25.843Z,6.60
2023-04-22T04:33:07.373Z,6.00
2023-04-22T04:35:43.316Z,5.40
2023-04-22T04:38:18.144Z,5.57
2023-04-22T04:40:51.901Z,6.22
2023-04-22T04:43:29.436Z,6.80
2023-04-22T04:46:16.666Z,6.85
2023-04-22T04:48:50.815Z,6.68
2023-04-22T04:51:24.590Z,7.32
2023-04-22T04:54:02.474Z,6.70
2023-04-22T04:56:41.022Z,7.75
2023-04-22T04:59:15.880Z,7.28
2023-04-22T05:01:50.575Z,6.50
2023-04-22T05:04:23.669Z,6.50
2023-04-22T05:06:56.685Z,7.45
2023-04-22T05:09:37.222Z,5.95
2023-04-22T05:12:10.406Z,6.63
2023-04-22T05:14:43.432Z,6.28
2023-04-22T05:17:17.778Z,6.13
2023-04-22T05:19:50.930Z,5.90
2023-04-22T05:22:23.883Z,7.30
2023-04-22T05:24:56.724Z,5.72
2023-04-22T05:27:30.706Z,5.40
2023-04-22T05:30:03.925Z,5.35
2023-04-22T05:32:40.596Z,6.28
2023-04-22T05:35:13.780Z,5.80
2023-04-22T05:37:48.055Z,5.18
2023-04-22T05:40:21.197Z,5.30
2023-04-22T05:42:54.040Z,5.75
2023-04-22T05:45:27.326Z,5.43
2023-04-22T05:48:01.606Z,6.18
2023-04-22T05:50:38.485Z,5.25
2023-04-22T05:53:14.264Z,4.80
2023-04-22T05:55:48.723Z,5.30
2023-04-22T05:58:21.592Z,5.18
2023-04-22T06:01:01.573Z,5.10
2023-04-22T06:04:01.907Z,4.53
2023-04-22T06:06:35.464Z,5.22
2023-04-22T06:09:08.747Z,4.53
2023-04-22T06:11:41.927Z,3.97
2023-04-22T06:14:15.124Z,3.78
2023-04-22T06:16:50.470Z,4.30
2023-04-22T06:19:24.818Z,3.72
2023-04-22T06:21:57.888Z,3.50
2023-04-22T06:24:31.000Z,4.18
2023-04-22T06:27:04.171Z,3.53
2023-04-22T06:29:37.335Z,3.65
2023-04-22T06:32:10.522Z,4.10
2023-04-22T06:34:44.757Z,3.63
2023-04-22T06:37:17.672Z,3.53
2023-04-22T06:39:51.767Z,3.83
2023-04-22T06:43:00.179Z,3.58
2023-04-22T06:45:56.522Z,3.30
2023-04-22T06:48:40.236Z,5.22
2023-04-22T06:51:40.838Z,3.50
2023-04-22T06:54:14.292Z,4.25
2023-04-22T06:56:47.459Z,3.55
2023-04-22T06:59:23.136Z,3.60
2023-04-22T07:01:56.098Z,3.40
2023-04-22T07:04:29.506Z,3.95
2023-04-22T07:07:05.967Z,4.25
2023-04-22T07:09:39.828Z,3.78
2023-04-22T07:12:13.332Z,3.75
2023-04-22T07:14:46.968Z,3.42
2023-04-22T07:17:22.571Z,3.58
2023-04-22T07:19:55.418Z,3.47
2023-04-22T07:22:29.636Z,4.20
2023-04-22T07:25:02.574Z,3.85
2023-04-22T07:27:37.199Z,3.55
2023-04-22T07:30:12.997Z,3.97
2023-04-22T07:32:48.244Z,3.45
2023-04-22T07:35:21.669Z,3.60
2023-04-22T07:37:55.969Z,3.40
2023-04-22T07:40:28.958Z,4.07
2023-04-22T07:43:01.901Z,4.20
2023-04-22T07:45:34.928Z,3.63
2023-04-22T07:48:07.852Z,3.38
2023-04-22T07:50:41.162Z,3.50
2023-04-22T07:53:18.038Z,3.70
2023-04-22T07:55:51.041Z,3.08
2023-04-22T07:58:23.841Z,3.65
2023-04-22T08:00:57.014Z,3.17
2023-04-22T08:03:30.335Z,3.72
2023-04-22T08:06:03.397Z,3.65
2023-04-22T08:08:37.727Z,4.43
2023-04-22T08:11:10.781Z,3.70
2023-04-22T08:13:43.623Z,3.60
2023-04-22T08:16:16.681Z,3.50
2023-04-22T08:18:49.477Z,3.25
2023-04-22T08:21:22.678Z,3.42
2023-04-22T08:23:56.795Z,3.85
2023-04-22T08:26:29.676Z,3.65
2023-04-22T08:29:02.760Z,3.47
2023-04-22T08:31:35.815Z,3.40
2023-04-22T08:34:08.720Z,3.47
2023-04-22T08:36:41.769Z,3.35
2023-04-22T08:39:16.010Z,3.10
2023-04-22T08:41:50.383Z,3.83
2023-04-22T08:44:23.711Z,2.90
2023-04-22T08:46:57.406Z,3.90
2023-04-22T08:49:31.480Z,3.60
2023-04-22T08:52:04.791Z,3.72
2023-04-22T08:54:39.281Z,3.80
2023-04-22T08:57:13.268Z,3.72
2023-04-22T08:59:46.561Z,3.72
2023-04-22T09:02:21.944Z,3.30
2023-04-22T09:04:55.019Z,3.45
2023-04-22T09:07:29.521Z,3.08
2023-04-22T09:10:04.504Z,3.03
2023-04-22T09:12:41.198Z,2.85
2023-04-22T09:15:14.151Z,3.10
2023-04-22T09:17:47.060Z,3.03
2023-04-22T09:20:20.615Z,3.33
2023-04-22T09:22:53.997Z,3.60
2023-04-22T09:25:28.777Z,3.10
2023-04-22T09:28:02.290Z,3.33
2023-04-22T09:30:37.955Z,3.90
2023-04-22T09:33:11.063Z,3.53
2023-04-22T09:35:47.452Z,3.47
2023-04-22T09:38:21.831Z,3.45
2023-04-22T09:40:56.255Z,3.60
2023-04-22T09:43:33.839Z,3.95
2023-04-22T09:46:06.797Z,4.00
2023-04-22T09:48:43.624Z,4.20
2023-04-22T09:51:17.318Z,3.83
2023-04-22T09:54:10.618Z,4.70
2023-04-22T09:56:48.516Z,4.10
2023-04-22T09:59:23.182Z,3.50
2023-04-22T10:02:01.267Z,3.42
2023-04-22T10:04:34.369Z,3.55
2023-04-22T10:07:07.554Z,3.70
2023-04-22T10:09:40.996Z,3.38
2023-04-22T10:12:16.666Z,3.75
2023-04-22T10:14:53.419Z,3.72
2023-04-22T10:17:27.015Z,4.55
2023-04-22T10:20:03.773Z,3.47
2023-04-22T10:22:36.781Z,3.67
2023-04-22T10:25:14.315Z,3.53
2023-04-22T10:27:54.138Z,4.25
2023-04-22T10:30:31.343Z,2.97
2023-04-22T10:33:42.092Z,3.45
2023-04-22T10:36:18.624Z,3.88
2023-04-22T10:39:17.891Z,3.60
2023-04-22T10:42:05.185Z,3.50
2023-04-22T10:44:50.402Z,4.00
2023-04-22T10:47:30.959Z,3.65
2023-04-22T10:50:24.012Z,3.40
2023-04-22T10:52:59.613Z,3.10
2023-04-22T10:55:50.645Z,3.42
2023-04-22T10:58:25.793Z,3.20
2023-04-22T11:01:03.172Z,2.90
2023-04-22T11:03:36.229Z,3.47
2023-04-22T11:06:16.878Z,2.45
2023-04-22T11:08:51.588Z,2.35
2023-04-22T11:11:24.809Z,3.03
2023-04-22T11:13:59.161Z,2.53
2023-04-22T11:16:34.212Z,2.15
2023-04-22T11:19:07.142Z,2.15
2023-04-22T11:21:40.545Z,2.58
2023-04-22T11:24:13.281Z,1.83
2023-04-22T11:26:46.926Z,2.10
2023-04-22T11:29:19.883Z,1.95
2023-04-22T11:31:54.149Z,1.98
2023-04-22T11:34:27.462Z,1.90
2023-04-22T11:37:00.266Z,2.03
2023-04-22T11:39:43.661Z,1.63
2023-04-22T11:42:23.565Z,1.52
2023-04-22T11:44:56.611Z,2.40
2023-04-22T11:47:32.048Z,1.70
2023-04-22T11:50:09.687Z,1.35
2023-04-22T11:52:45.784Z,1.40
2023-04-22T11:55:22.960Z,1.15
2023-04-22T11:57:57.850Z,0.93
2023-04-22T12:00:34.426Z,1.05
2023-04-22T12:03:15.495Z,0.82
2023-04-22T12:05:52.561Z,1.10
2023-04-22T12:08:27.007Z,0.88
2023-04-22T12:11:02.100Z,0.80
2023-04-22T12:13:42.742Z,0.80
2023-04-22T12:16:18.665Z,0.90
2023-04-22T12:18:54.112Z,0.60
2023-04-22T12:21:28.602Z,0.90
2023-04-22T12:24:08.057Z,0.77
2023-04-22T12:26:40.843Z,1.23
2023-04-22T12:29:13.707Z,1.10
2023-04-22T12:31:46.646Z,0.90
2023-04-22T12:34:20.822Z,1.00
2023-04-22T12:36:54.883Z,1.00
2023-04-22T12:39:27.992Z,0.80
2023-04-22T12:42:00.797Z,1.20
2023-04-22T12:44:33.552Z,0.95
2023-04-22T12:47:06.559Z,1.20
2023-04-22T12:49:46.939Z,1.20
2023-04-22T12:52:19.966Z,0.80
2023-04-22T12:54:52.999Z,0.70
2023-04-22T12:57:27.092Z,1.10
2023-04-22T13:00:00.097Z,0.98
2023-04-22T13:02:32.952Z,1.00
2023-04-22T13:05:07.518Z,1.10
2023-04-22T13:07:41.758Z,0.70
2023-04-22T13:10:16.712Z,0.85
2023-04-22T13:12:50.043Z,1.20
2023-04-22T13:15:22.827Z,1.00
2023-04-22T13:17:55.660Z,0.80
2023-04-22T13:20:30.058Z,0.90
2023-04-22T13:23:04.804Z,0.80
2023-04-22T13:25:37.931Z,0.90
2023-04-22T13:28:12.105Z,0.93
2023-04-22T13:30:45.248Z,0.93
2023-04-22T13:33:17.967Z,1.20
2023-04-22T13:35:52.143Z,1.00
2023-04-22T13:38:25.137Z,0.90
2023-04-22T13:40:57.968Z,1.10
2023-04-22T13:43:30.805Z,1.52
2023-04-22T13:46:03.744Z,1.15
2023-04-22T13:48:36.961Z,1.17
2023-04-22T13:51:11.110Z,1.25
2023-04-22T13:53:44.214Z,1.17
2023-04-22T13:56:17.181Z,1.20
2023-04-22T13:58:50.192Z,1.10
2023-04-22T14:01:23.137Z,1.20
2023-04-22T14:03:56.025Z,1.40
2023-04-22T14:06:30.392Z,1.40
2023-04-22T14:09:05.000Z,1.10
2023-04-22T14:11:37.887Z,1.23
2023-04-22T14:14:11.108Z,1.48
2023-04-22T14:16:44.049Z,1.65
2023-04-22T14:19:16.907Z,1.20
2023-04-22T14:21:51.247Z,1.33
2023-04-22T14:24:24.580Z,1.90
2023-04-22T14:27:00.289Z,1.17
2023-04-22T14:29:33.207Z,1.58
2023-04-22T14:32:06.245Z,1.88
2023-04-22T14:34:39.702Z,1.42
2023-04-22T14:37:13.972Z,1.00
2023-04-22T14:39:46.824Z,1.38
2023-04-22T14:42:20.469Z,1.48
2023-04-22T14:44:53.562Z,1.20
2023-04-22T14:47:26.613Z,1.10
2023-04-22T14:49:59.449Z,1.40
2023-04-22T14:52:34.014Z,1.20
2023-04-22T14:55:19.580Z,1.33
2023-04-22T14:57:57.730Z,1.60
2023-04-22T15:00:31.141Z,1.30
2023-04-22T15:03:05.035Z,1.50
2023-04-22T15:05:37.915Z,1.00
2023-04-22T15:08:14.685Z,1.20
2023-04-22T15:10:47.544Z,1.50
2023-04-22T15:13:21.010Z,1.33
2023-04-22T15:15:53.870Z,1.52
2023-04-22T15:18:27.483Z,1.15
2023-04-22T15:21:00.357Z,1.48
2023-04-22T15:23:34.511Z,1.60
2023-04-22T15:26:07.421Z,1.15
2023-04-22T15:28:40.491Z,3.08
2023-04-22T15:31:13.472Z,2.85
2023-04-22T15:33:46.520Z,2.17
2023-04-22T15:36:21.644Z,1.35
2023-04-22T15:38:57.103Z,1.40
2023-04-22T15:41:29.974Z,1.20
2023-04-22T15:44:03.645Z,1.27
2023-04-22T15:46:36.602Z,1.55
2023-04-22T15:49:09.411Z,1.20
2023-04-22T15:51:42.669Z,1.20
2023-04-22T15:54:17.006Z,1.10
2023-04-22T15:56:49.908Z,1.13
2023-04-22T15:59:22.900Z,1.40
2023-04-22T16:01:56.428Z,1.70
2023-04-22T16:04:29.773Z,1.50
2023-04-22T16:07:02.679Z,2.30
2023-04-22T16:09:36.918Z,1.30
2023-04-22T16:12:09.704Z,1.60
2023-04-22T16:14:42.541Z,1.20
2023-04-22T16:17:15.914Z,1.40
2023-04-22T16:19:48.880Z,1.75
2023-04-22T16:22:21.996Z,1.30
2023-04-22T16:25:15.175Z,1.48
2023-04-22T16:27:48.286Z,1.70
2023-04-22T16:30:21.094Z,1.63
2023-04-22T16:32:53.837Z,1.40
2023-04-22T16:35:26.609Z,1.58
2023-04-22T16:37:59.871Z,1.50
2023-04-22T16:40:35.046Z,1.80
2023-04-22T16:43:09.204Z,1.95
2023-04-22T16:45:42.754Z,1.98
2023-04-22T16:48:15.985Z,2.08
2023-04-22T16:50:49.513Z,1.63
2023-04-22T16:53:22.289Z,1.73
2023-04-22T16:55:56.714Z,1.80
2023-04-22T16:58:29.544Z,1.70
2023-04-22T17:01:02.378Z,1.63
2023-04-22T17:03:35.404Z,1.50
2023-04-22T17:06:08.798Z,1.88
2023-04-22T17:08:41.553Z,1.80
2023-04-22T17:11:15.947Z,1.80
2023-04-22T17:13:48.911Z,2.08
2023-04-22T17:16:21.808Z,2.45
2023-04-22T17:18:54.732Z,2.15
2023-04-22T17:21:28.067Z,1.90
2023-04-22T17:24:02.262Z,2.45
2023-04-22T17:26:37.119Z,1.95
2023-04-22T17:29:09.905Z,2.10
2023-04-22T17:31:42.881Z,2.35
2023-04-22T17:34:15.909Z,3.30
2023-04-22T17:36:48.887Z,2.90
2023-04-22T17:39:22.043Z,2.50
2023-04-22T17:41:57.668Z,2.38
2023-04-22T17:44:32.005Z,2.70
2023-04-22T17:47:06.801Z,2.75
2023-04-22T17:49:40.506Z,2.72
2023-04-22T17:52:13.627Z,2.10
2023-04-22T17:54:46.770Z,2.55
2023-04-22T17:57:21.262Z,2.22
2023-04-22T17:59:54.537Z,2.40
2023-04-22T18:02:27.896Z,2.08
2023-04-22T18:05:01.444Z,2.35
2023-04-22T18:07:34.495Z,2.10
2023-04-22T18:10:08.838Z,2.15
2023-04-22T18:12:44.355Z,2.33
2023-04-22T18:15:17.407Z,2.20
2023-04-22T18:17:50.261Z,2.67
2023-04-22T18:20:23.253Z,2.80
2023-04-22T18:22:56.620Z,3.10
2023-04-22T18:25:29.897Z,2.50
2023-04-22T18:28:04.144Z,2.50
2023-04-22T18:30:37.104Z,2.72
2023-04-22T18:33:10.128Z,2.30
2023-04-22T18:35:43.120Z,2.47
2023-04-22T18:38:16.538Z,2.20
2023-04-22T18:40:49.357Z,2.50
2023-04-22T18:43:23.616Z,2.40
2023-04-22T18:45:56.612Z,3.13
2023-04-22T18:48:29.532Z,2.45
2023-04-22T18:51:02.586Z,2.25
2023-04-22T18:53:35.466Z,2.30
2023-04-22T18:56:08.220Z,2.63
2023-04-22T18:58:42.685Z,2.13
2023-04-22T19:01:16.334Z,2.20
2023-04-22T19:03:49.829Z,2.28
2023-04-22T19:06:22.662Z,2.22
2023-04-22T19:08:55.554Z,2.55
2023-04-22T19:11:28.888Z,2.83
2023-04-22T19:14:03.344Z,2.78
2023-04-22T19:16:36.149Z,2.78
2023-04-22T19:19:08.901Z,3.00
2023-04-22T19:21:42.087Z,2.97
2023-04-22T19:24:16.275Z,3.03
2023-04-22T19:26:49.357Z,2.70
2023-04-22T19:29:23.517Z,2.30
2023-04-22T19:31:58.912Z,2.47
2023-04-22T19:34:32.672Z,2.47
2023-04-22T19:37:06.104Z,2.70
2023-04-22T19:39:39.523Z,2.67
2023-04-22T19:42:12.811Z,2.67
2023-04-22T19:44:48.384Z,2.45
2023-04-22T19:47:21.552Z,2.33
2023-04-22T19:49:54.851Z,2.33
2023-04-22T19:52:28.844Z,3.60
2023-04-22T19:55:08.753Z,2.67
2023-04-22T19:57:42.355Z,2.78
2023-04-22T20:00:17.671Z,2.83
2023-04-22T20:02:51.669Z,3.53
2023-04-22T20:05:26.199Z,3.13
2023-04-22T20:07:59.846Z,3.25
2023-04-22T20:10:33.007Z,3.22
2023-04-22T20:13:06.279Z,3.58
2023-04-22T20:15:41.006Z,2.97
2023-04-22T20:18:14.191Z,2.80
2023-04-22T20:20:48.226Z,2.92
2023-04-22T20:23:24.147Z,2.72
2023-04-22T20:25:57.760Z,2.70
2023-04-22T20:28:43.870Z,3.28
2023-04-22T20:31:20.514Z,2.65
2023-04-22T20:33:53.959Z,2.60
2023-04-22T20:36:27.440Z,2.67
2023-04-22T20:39:05.283Z,3.20
2023-04-22T20:41:39.870Z,2.40
2023-04-22T20:44:14.217Z,3.60
2023-04-22T20:46:48.777Z,2.80
2023-04-22T20:49:22.059Z,2.20
2023-04-22T20:51:56.374Z,2.30
2023-04-22T20:54:30.319Z,2.20
2023-04-22T20:57:04.817Z,2.00
2023-04-22T20:59:37.801Z,2.30
2023-04-22T21:02:13.382Z,2.00
2023-04-22T21:04:46.583Z,2.00
2023-04-22T21:07:21.685Z,1.58
2023-04-22T21:09:54.808Z,1.88
2023-04-22T21:12:28.240Z,1.67
2023-04-22T21:15:02.026Z,1.80
2023-04-22T21:17:38.717Z,1.50
2023-04-22T21:20:12.424Z,1.30
2023-04-22T21:22:47.135Z,1.70
2023-04-22T21:25:23.467Z,1.45
2023-04-22T21:27:56.806Z,1.67
2023-04-22T21:30:30.497Z,1.38
2023-04-22T21:33:04.738Z,1.50
2023-04-22T21:35:39.282Z,2.00
2023-04-22T21:38:12.654Z,1.48
2023-04-22T21:40:45.698Z,1.40
2023-04-22T21:43:18.638Z,1.20
2023-04-22T21:45:51.668Z,1.50
2023-04-22T21:48:26.540Z,1.88
2023-04-22T21:51:00.175Z,1.30
2023-04-22T21:53:33.500Z,2.13
2023-04-22T21:56:06.879Z,1.50
2023-04-22T21:58:39.885Z,1.63
2023-04-22T22:01:13.337Z,1.60
2023-04-22T22:03:48.085Z,1.70
2023-04-22T22:06:21.086Z,1.58
2023-04-22T22:08:54.891Z,1.50
2023-04-22T22:11:31.165Z,1.52
2023-04-22T22:14:04.796Z,1.75
2023-04-22T22:16:38.413Z,1.70
2023-04-22T22:19:14.071Z,1.65
2023-04-22T22:21:47.330Z,1.42
2023-04-22T22:24:20.164Z,1.58
2023-04-22T22:26:53.113Z,1.80
2023-04-22T22:29:26.106Z,1.42
2023-04-22T22:31:59.152Z,1.70
2023-04-22T22:34:33.881Z,1.60
2023-04-22T22:37:07.076Z,1.88
2023-04-22T22:39:39.963Z,2.00
2023-04-22T22:42:12.864Z,1.90
2023-04-22T22:44:45.672Z,1.60
2023-04-22T22:47:18.881Z,2.08
2023-04-22T22:49:53.552Z,1.50
2023-04-22T22:52:26.361Z,1.83
2023-04-22T22:54:59.558Z,1.50
2023-04-22T22:57:32.396Z,2.17
2023-04-22T23:00:06.998Z,2.05
2023-04-22T23:02:40.385Z,1.55
2023-04-22T23:05:14.892Z,2.00
2023-04-22T23:07:47.772Z,2.60
2023-04-22T23:10:23.994Z,1.95
2023-04-22T23:13:04.307Z,2.08
2023-04-22T23:15:37.571Z,2.40
2023-04-22T23:18:10.644Z,2.25
2023-04-22T23:20:45.232Z,2.20
2023-04-22T23:23:19.942Z,2.10
2023-04-22T23:25:53.549Z,1.85
2023-04-22T23:28:26.950Z,2.15
2023-04-22T23:31:00.059Z,2.05
2023-04-22T23:33:36.057Z,2.03
2023-04-22T23:36:14.104Z,2.67
2023-04-22T23:38:47.145Z,1.90
2023-04-22T23:41:19.969Z,2.33
2023-04-22T23:43:53.307Z,2.67
2023-04-22T23:46:26.841Z,2.50
2023-04-22T23:49:01.457Z,2.40
2023-04-22T23:51:35.960Z,1.90
2023-04-22T23:54:09.084Z,2.30
2023-04-22T23:56:43.015Z,2.60
2023-04-22T23:59:16.624Z,2.55
